createdAt,value
2023-01-18T00:02:14.753Z,2.83
2023-01-18T00:04:46.467Z,2.62
2023-01-18T00:07:16.426Z,3.77
2023-01-18T00:09:45.159Z,3.45
2023-01-18T00:12:14.145Z,2.35
2023-01-18T00:14:43.781Z,5.12
2023-01-18T00:17:14.239Z,2.42
2023-01-18T00:19:42.977Z,3.52
2023-01-18T00:22:21.934Z,2.22
2023-01-18T00:24:50.564Z,6.72
2023-01-18T00:27:19.250Z,3.70
2023-01-18T00:29:47.932Z,3.22
2023-01-18T00:32:16.988Z,2.67
2023-01-18T00:34:49.133Z,4.05
2023-01-18T00:37:17.457Z,7.33
2023-01-18T00:39:49.036Z,3.02
2023-01-18T00:42:35.421Z,1.60
2023-01-18T00:45:04.587Z,3.42
2023-01-18T00:47:33.174Z,3.52
2023-01-18T00:50:01.914Z,2.30
2023-01-18T00:52:32.503Z,1.92
2023-01-18T00:55:00.868Z,4.65
2023-01-18T00:57:29.467Z,4.60
2023-01-18T00:59:58.198Z,3.77
2023-01-18T01:02:26.932Z,2.80
2023-01-18T01:05:12.893Z,7.92
2023-01-18T01:07:42.124Z,3.27
2023-01-18T01:10:14.930Z,3.77
2023-01-18T01:13:01.163Z,3.35
2023-01-18T01:15:47.267Z,1.52
2023-01-18T01:18:33.817Z,4.85
2023-01-18T01:21:24.506Z,1.45
2023-01-18T01:24:12.012Z,1.45
2023-01-18T01:26:40.894Z,3.30
2023-01-18T01:29:11.764Z,3.67
2023-01-18T01:31:40.755Z,3.12
2023-01-18T01:34:09.891Z,2.95
2023-01-18T01:36:38.986Z,5.65
2023-01-18T01:39:12.298Z,3.70
2023-01-18T01:41:46.536Z,4.37
2023-01-18T01:44:49.195Z,2.20
2023-01-18T01:47:23.488Z,11.90
2023-01-18T01:49:59.234Z,6.10
2023-01-18T01:52:40.307Z,3.42
2023-01-18T01:55:13.082Z,4.15
2023-01-18T01:57:47.859Z,3.42
2023-01-18T02:00:25.940Z,3.10
2023-01-18T02:03:11.533Z,2.77
2023-01-18T02:05:53.403Z,4.45
2023-01-18T02:08:35.257Z,2.22
2023-01-18T02:11:07.364Z,1.45
2023-01-18T02:13:42.286Z,3.50
2023-01-18T02:16:25.122Z,7.72
2023-01-18T02:19:21.700Z,4.85
2023-01-18T02:22:27.976Z,2.58
2023-01-18T02:25:21.264Z,4.55
2023-01-18T02:28:27.369Z,6.47
2023-01-18T02:30:59.406Z,3.92
2023-01-18T02:33:41.906Z,8.20
2023-01-18T02:36:14.631Z,6.20
2023-01-18T02:38:49.727Z,2.80
2023-01-18T02:41:21.776Z,5.90
2023-01-18T02:44:16.024Z,3.62
2023-01-18T02:52:42.434Z,9.50
2023-01-18T02:53:01.736Z,3.80
2023-01-18T02:55:14.347Z,9.13
2023-01-18T02:57:49.267Z,4.10
2023-01-18T03:00:26.199Z,5.92
2023-01-18T03:03:01.031Z,4.37
2023-01-18T03:05:43.345Z,2.42
2023-01-18T03:08:28.575Z,5.25
2023-01-18T03:11:11.678Z,4.70
2023-01-18T03:14:11.972Z,3.98
2023-01-18T03:16:55.066Z,5.78
2023-01-18T03:19:43.544Z,2.52
2023-01-18T03:22:19.221Z,3.17
2023-01-18T03:24:49.541Z,9.15
2023-01-18T03:27:35.887Z,2.77
2023-01-18T03:30:23.030Z,2.40
2023-01-18T03:33:10.942Z,10.05
2023-01-18T03:35:42.143Z,8.75
2023-01-18T03:38:12.640Z,2.72
2023-01-18T03:40:46.370Z,3.80
2023-01-18T03:46:15.625Z,4.55
2023-01-18T03:48:49.124Z,3.05
2023-01-18T03:51:37.222Z,7.50
2023-01-18T03:54:17.978Z,5.25
2023-01-18T03:56:55.590Z,2.33
2023-01-18T03:59:43.380Z,4.00
2023-01-18T04:02:16.661Z,3.27
2023-01-18T04:05:07.579Z,6.42
2023-01-18T04:10:26.963Z,7.35
2023-01-18T04:13:03.410Z,4.08
2023-01-18T04:15:40.492Z,2.27
2023-01-18T04:18:37.451Z,5.95
2023-01-18T04:21:28.729Z,2.92
2023-01-18T04:24:00.430Z,3.55
2023-01-18T04:26:42.614Z,5.08
2023-01-18T04:29:42.526Z,7.50
2023-01-18T04:35:16.415Z,3.20
2023-01-18T04:37:45.101Z,8.30
2023-01-18T04:40:14.423Z,23.50
2023-01-18T04:42:43.007Z,7.10
2023-01-18T04:45:14.169Z,5.60
2023-01-18T04:47:42.822Z,4.08
2023-01-18T04:50:41.737Z,10.48
2023-01-18T04:53:20.673Z,8.70
2023-01-18T04:55:51.371Z,4.45
2023-01-18T04:58:23.167Z,8.50
2023-01-18T05:00:53.703Z,4.15
2023-01-18T05:03:22.470Z,7.05
2023-01-18T05:05:51.105Z,5.00
2023-01-18T05:08:21.221Z,14.90
2023-01-18T05:10:50.885Z,8.50
2023-01-18T05:13:19.768Z,3.30
2023-01-18T05:15:49.630Z,7.25
2023-01-18T05:18:18.308Z,4.42
2023-01-18T05:20:49.280Z,9.13
2023-01-18T05:23:17.919Z,3.67
2023-01-18T05:25:46.617Z,8.58
2023-01-18T05:28:15.369Z,9.00
2023-01-18T05:30:44.387Z,5.35
2023-01-18T05:33:14.155Z,9.25
2023-01-18T05:35:44.877Z,5.67
2023-01-18T05:38:13.399Z,6.35
2023-01-18T05:40:44.662Z,6.25
2023-01-18T05:43:14.229Z,4.12
2023-01-18T05:45:46.038Z,9.88
2023-01-18T05:48:14.700Z,4.28
2023-01-18T05:50:48.579Z,9.18
2023-01-18T05:53:20.627Z,3.92
2023-01-18T05:55:57.598Z,9.30
2023-01-18T05:58:30.878Z,4.78
2023-01-18T06:01:00.051Z,6.80
2023-01-18T06:03:28.687Z,6.72
2023-01-18T06:05:59.133Z,7.50
2023-01-18T06:08:28.697Z,5.83
2023-01-18T06:10:58.982Z,5.25
2023-01-18T06:13:31.257Z,12.78
2023-01-18T06:16:01.988Z,10.08
2023-01-18T06:18:32.996Z,12.53
2023-01-18T06:21:03.842Z,4.87
2023-01-18T06:23:33.039Z,7.30
2023-01-18T06:26:01.791Z,9.43
2023-01-18T06:28:32.125Z,8.90
2023-01-18T06:31:02.514Z,9.38
2023-01-18T06:33:33.060Z,7.45
2023-01-18T06:36:01.769Z,10.72
2023-01-18T06:38:31.474Z,14.07
2023-01-18T06:41:00.301Z,13.50
2023-01-18T06:43:29.540Z,12.50
2023-01-18T06:45:58.671Z,6.78
2023-01-18T06:48:29.691Z,6.72
2023-01-18T06:50:59.240Z,8.28
2023-01-18T06:53:31.415Z,5.65
2023-01-18T06:56:04.859Z,9.88
2023-01-18T06:58:34.597Z,11.93
2023-01-18T07:01:03.834Z,3.85
2023-01-18T07:03:37.052Z,9.38
2023-01-18T07:06:07.710Z,7.08
2023-01-18T07:08:36.801Z,9.90
2023-01-18T07:17:39.005Z,6.97
2023-01-18T07:21:24.998Z,4.70
2023-01-18T07:27:06.887Z,14.10
2023-01-18T07:29:36.620Z,6.62
2023-01-18T07:32:05.765Z,7.83
2023-01-18T07:34:34.622Z,8.83
2023-01-18T07:37:03.419Z,6.08
2023-01-18T07:39:32.048Z,5.85
2023-01-18T07:42:00.833Z,9.60
2023-01-18T07:44:32.642Z,10.95
2023-01-18T07:47:04.157Z,7.37
2023-01-18T07:53:01.915Z,8.28
2023-01-18T07:55:30.806Z,10.75
2023-01-18T07:58:00.454Z,6.17
2023-01-18T08:00:33.271Z,11.93
2023-01-18T08:03:02.592Z,8.95
2023-01-18T08:05:36.330Z,8.80
2023-01-18T08:08:11.620Z,3.85
2023-01-18T08:10:41.214Z,17.07
2023-01-18T08:13:12.445Z,5.65
2023-01-18T08:19:16.769Z,9.80
2023-01-18T08:21:46.537Z,8.13
2023-01-18T08:24:17.191Z,7.65
2023-01-18T08:26:48.690Z,5.25
2023-01-18T08:29:17.366Z,6.45
2023-01-18T08:31:46.039Z,10.80
2023-01-18T08:34:14.650Z,7.60
2023-01-18T08:36:45.985Z,9.03
2023-01-18T08:39:15.319Z,8.38
2023-01-18T08:41:47.179Z,7.83
2023-01-18T08:44:15.797Z,4.47
2023-01-18T08:46:46.691Z,5.78
2023-01-18T08:49:15.470Z,10.85
2023-01-18T08:51:45.738Z,5.42
2023-01-18T08:54:15.994Z,7.10
2023-01-18T08:56:49.194Z,12.75
2023-01-18T08:59:19.641Z,8.05
2023-01-18T09:01:48.436Z,5.85
2023-01-18T09:04:17.017Z,11.10
2023-01-18T09:06:48.717Z,7.78
2023-01-18T09:09:19.244Z,11.10
2023-01-18T09:12:17.737Z,7.65
2023-01-18T09:14:47.547Z,8.48
2023-01-18T09:17:18.095Z,9.58
2023-01-18T09:19:47.398Z,9.43
2023-01-18T09:22:15.971Z,9.80
2023-01-18T09:24:44.776Z,8.23
2023-01-18T09:27:14.059Z,8.23
2023-01-18T09:29:42.881Z,7.72
2023-01-18T09:32:11.547Z,8.65
2023-01-18T09:34:41.034Z,9.30
2023-01-18T09:37:09.674Z,11.73
2023-01-18T09:39:51.080Z,7.10
2023-01-18T09:42:11.987Z,7.65
2023-01-18T09:44:48.231Z,10.72
2023-01-18T09:47:32.094Z,9.60
2023-01-18T09:50:03.062Z,8.48
2023-01-18T09:52:40.747Z,9.15
2023-01-18T09:55:29.225Z,11.43
2023-01-18T09:58:12.919Z,9.73
2023-01-18T10:00:50.333Z,9.35
2023-01-18T10:03:29.555Z,11.48
2023-01-18T10:06:09.876Z,5.78
2023-01-18T10:08:46.426Z,8.60
2023-01-18T10:11:30.769Z,8.05
2023-01-18T10:14:18.438Z,10.30
2023-01-18T10:16:55.681Z,7.17
2023-01-18T10:19:27.385Z,7.30
2023-01-18T10:22:18.050Z,9.35
2023-01-18T10:24:56.145Z,7.33
2023-01-18T10:27:36.054Z,6.28
2023-01-18T10:30:23.714Z,9.83
2023-01-18T10:33:01.102Z,8.20
2023-01-18T10:35:48.575Z,9.63
2023-01-18T10:38:20.545Z,9.73
2023-01-18T10:40:55.180Z,8.00
2023-01-18T10:43:27.073Z,15.75
2023-01-18T10:45:58.520Z,7.60
2023-01-18T10:48:36.601Z,8.03
2023-01-18T10:51:09.179Z,14.58
2023-01-18T10:53:39.968Z,7.67
2023-01-18T10:56:22.799Z,7.25
2023-01-18T10:59:03.704Z,15.78
2023-01-18T11:01:35.541Z,9.68
2023-01-18T11:04:07.838Z,17.82
2023-01-18T11:06:51.597Z,4.20
2023-01-18T11:09:49.738Z,10.03
2023-01-18T11:12:40.946Z,8.53
2023-01-18T11:15:19.021Z,9.08
2023-01-18T11:18:00.966Z,10.55
2023-01-18T11:20:43.678Z,7.70
2023-01-18T11:23:16.413Z,14.55
2023-01-18T11:26:03.114Z,7.05
2023-01-18T11:28:37.598Z,14.25
2023-01-18T11:31:19.340Z,9.13
2023-01-18T11:34:17.952Z,7.33
2023-01-18T11:36:54.353Z,7.75
2023-01-18T11:39:44.162Z,10.98
2023-01-18T11:42:27.521Z,8.98
2023-01-18T11:45:19.259Z,12.25
2023-01-18T11:48:40.797Z,8.65
2023-01-18T11:51:45.840Z,11.83
2023-01-18T11:58:05.149Z,9.15
2023-01-18T12:01:02.607Z,17.10
2023-01-18T12:03:32.664Z,8.25
2023-01-18T12:06:17.643Z,8.25
2023-01-18T12:09:18.927Z,14.87
2023-01-18T12:12:19.977Z,10.10
2023-01-18T14:59:35.837Z,28.12
2023-01-18T15:02:46.795Z,26.85
2023-01-18T15:12:02.072Z,16.67
2023-01-18T15:39:28.085Z,21.57
2023-01-18T15:58:13.593Z,30.15
2023-01-18T16:04:55.311Z,21.80
2023-01-18T16:08:14.797Z,31.65
2023-01-18T16:11:43.340Z,28.98
2023-01-18T16:50:33.061Z,24.52
2023-01-18T16:53:03.163Z,36.55
2023-01-18T16:58:31.234Z,37.03
2023-01-18T17:01:09.145Z,28.52
2023-01-18T17:03:38.120Z,34.48
2023-01-18T17:06:13.111Z,31.40
2023-01-18T17:08:41.814Z,20.00
2023-01-18T17:11:12.812Z,31.12
2023-01-18T17:13:45.981Z,30.30
2023-01-18T17:16:22.123Z,29.30
2023-01-18T17:19:02.449Z,32.63
2023-01-18T17:25:06.089Z,31.40
2023-01-18T17:27:35.106Z,38.90
2023-01-18T17:30:04.492Z,42.38
2023-01-18T17:48:06.097Z,29.80
2023-01-18T17:50:41.167Z,39.58
2023-01-18T17:56:41.802Z,51.28
2023-01-18T17:59:11.131Z,38.75
2023-01-18T18:01:40.010Z,52.65
2023-01-18T18:04:10.383Z,42.98
2023-01-18T18:06:46.042Z,34.08
2023-01-18T18:09:22.932Z,28.98
2023-01-18T18:15:03.975Z,29.50
2023-01-18T18:23:34.747Z,27.20
2023-01-18T18:26:04.661Z,31.57
2023-01-18T18:28:34.789Z,32.15
2023-01-18T18:31:06.564Z,36.75
2023-01-18T18:33:35.165Z,28.73
2023-01-18T18:36:05.126Z,35.90
2023-01-18T18:38:33.743Z,89.65
2023-01-18T18:41:09.220Z,28.45
2023-01-18T18:43:39.438Z,32.05
2023-01-18T18:46:11.108Z,34.45
2023-01-18T18:48:41.353Z,23.47
2023-01-18T18:51:12.699Z,36.58
2023-01-18T18:53:41.328Z,34.80
2023-01-18T18:56:10.748Z,50.38
2023-01-18T18:58:41.149Z,34.55
2023-01-18T19:01:24.479Z,37.70
2023-01-18T19:03:56.552Z,24.50
2023-01-18T19:06:25.781Z,37.42
2023-01-18T19:08:55.398Z,32.20
2023-01-18T19:11:24.185Z,30.55
2023-01-18T19:14:00.880Z,34.75
2023-01-18T19:16:43.297Z,33.42
2023-01-18T19:22:37.236Z,114.65
2023-01-18T19:25:07.924Z,29.82
2023-01-18T19:27:48.618Z,36.33
2023-01-18T19:30:33.450Z,44.13
2023-01-18T19:33:22.441Z,39.88
2023-01-18T19:36:01.936Z,42.58
2023-01-18T19:38:30.844Z,39.50
2023-01-18T19:41:05.707Z,40.40
2023-01-18T19:46:35.990Z,42.00
2023-01-18T19:49:11.864Z,39.75
2023-01-18T19:52:16.791Z,41.20
2023-01-18T20:04:31.505Z,45.75
2023-01-18T20:13:08.130Z,43.38
2023-01-18T20:18:49.043Z,43.90
2023-01-18T20:21:47.003Z,52.08
2023-01-18T20:24:16.631Z,33.18
2023-01-18T20:26:45.493Z,47.20
2023-01-18T20:29:14.154Z,33.38
2023-01-18T20:31:49.688Z,50.35
2023-01-18T20:34:19.645Z,43.45
2023-01-18T20:36:49.222Z,36.88
2023-01-18T20:39:18.915Z,60.35
2023-01-18T20:41:49.791Z,49.83
2023-01-18T20:44:18.760Z,39.42
2023-01-18T20:46:48.301Z,48.85
2023-01-18T20:49:20.533Z,49.13
2023-01-18T20:51:49.105Z,47.90
2023-01-18T20:54:19.968Z,42.05
2023-01-18T20:56:49.333Z,50.50
2023-01-18T20:59:18.658Z,50.05
2023-01-18T21:01:48.092Z,48.95
2023-01-18T21:04:17.072Z,53.08
2023-01-18T21:06:48.469Z,49.30
2023-01-18T21:18:44.991Z,40.20
2023-01-18T21:21:15.276Z,58.17
2023-01-18T21:23:44.178Z,50.83
2023-01-18T21:26:15.225Z,51.55
2023-01-18T21:28:44.033Z,53.30
2023-01-18T21:31:12.995Z,51.08
2023-01-18T21:33:42.545Z,44.40
2023-01-18T21:36:14.541Z,47.65
2023-01-18T21:38:43.350Z,51.02
2023-01-18T21:41:30.276Z,60.60
2023-01-18T21:44:17.213Z,45.05
2023-01-18T21:46:51.247Z,52.65
2023-01-18T21:52:26.908Z,69.35
2023-01-18T21:54:55.622Z,50.45
2023-01-18T21:57:25.867Z,42.05
2023-01-18T21:59:54.664Z,48.00
2023-01-18T22:02:25.004Z,57.23
2023-01-18T22:05:01.060Z,43.80
2023-01-18T22:07:31.386Z,42.83
2023-01-18T22:10:06.016Z,47.17
2023-01-18T22:12:36.193Z,50.50
2023-01-18T22:15:07.089Z,36.85
2023-01-18T22:17:35.794Z,54.73
2023-01-18T22:20:04.567Z,48.30
2023-01-18T22:22:33.938Z,42.10
2023-01-18T22:25:02.551Z,44.23
2023-01-18T22:27:34.409Z,40.03
2023-01-18T22:30:03.208Z,46.18
2023-01-18T22:32:33.369Z,42.38
2023-01-18T22:35:01.999Z,59.18
2023-01-18T22:37:31.122Z,48.97
2023-01-18T22:40:01.528Z,39.83
2023-01-18T22:42:30.301Z,44.77
2023-01-18T22:45:03.291Z,47.83
2023-01-18T22:47:31.970Z,56.20
2023-01-18T22:50:05.368Z,59.83
2023-01-18T22:52:39.298Z,41.95
2023-01-18T22:55:09.068Z,51.45
2023-01-18T22:57:37.955Z,49.55
2023-01-18T23:00:07.830Z,49.58
2023-01-18T23:02:36.588Z,43.13
2023-01-18T23:05:05.371Z,45.48
2023-01-18T23:07:34.061Z,53.17
2023-01-18T23:10:02.709Z,40.05
2023-01-18T23:12:31.317Z,50.08
2023-01-18T23:15:18.096Z,33.60
2023-01-18T23:17:46.663Z,38.70
2023-01-18T23:20:19.896Z,41.90
2023-01-18T23:22:51.022Z,47.65
2023-01-18T23:25:19.876Z,27.45
2023-01-18T23:27:48.556Z,42.17
2023-01-18T23:30:17.384Z,37.20
2023-01-18T23:32:45.899Z,35.65
2023-01-18T23:35:16.021Z,39.63
2023-01-18T23:37:44.661Z,43.17
2023-01-18T23:40:32.280Z,39.78
2023-01-18T23:43:18.997Z,34.48
2023-01-18T23:46:05.616Z,49.00
2023-01-18T23:48:52.433Z,33.98
2023-01-18T23:51:44.929Z,30.95
2023-01-18T23:54:19.200Z,38.38
2023-01-18T23:56:49.088Z,38.35
2023-01-18T23:59:22.827Z,45.52
